createdAt,value
2023-04-19T00:02:13.306Z,10.96
2023-04-19T00:04:40.312Z,11.17
2023-04-19T00:07:07.598Z,10.98
2023-04-19T00:09:34.278Z,10.91
2023-04-19T00:12:01.423Z,11.17
2023-04-19T00:14:28.118Z,11.08
2023-04-19T00:16:54.791Z,11.14
2023-04-19T00:19:22.365Z,11.18
2023-04-19T00:21:49.365Z,10.99
2023-04-19T00:24:16.259Z,10.97
2023-04-19T00:26:42.909Z,11.18
2023-04-19T00:29:11.103Z,11.18
2023-04-19T00:31:39.807Z,10.95
2023-04-19T00:34:06.752Z,11.16
2023-04-19T00:36:33.469Z,11.06
2023-04-19T00:39:00.445Z,11.05
2023-04-19T00:41:27.104Z,10.94
2023-04-19T00:43:55.009Z,10.36
2023-04-19T00:46:22.249Z,11.06
2023-04-19T00:48:50.062Z,11.13
2023-04-19T00:51:16.958Z,10.91
2023-04-19T00:53:43.551Z,11.21
2023-04-19T00:56:11.191Z,11.15
2023-04-19T00:58:38.630Z,11.10
2023-04-19T01:01:06.399Z,11.27
2023-04-19T01:03:34.874Z,11.27
2023-04-19T01:06:02.110Z,11.03
2023-04-19T01:08:29.730Z,11.18
2023-04-19T01:10:56.408Z,10.99
2023-04-19T01:13:23.062Z,10.91
2023-04-19T01:15:49.778Z,11.09
2023-04-19T01:18:19.419Z,11.22
2023-04-19T01:20:46.195Z,11.08
2023-04-19T01:23:12.914Z,11.20
2023-04-19T01:25:39.550Z,11.19
2023-04-19T01:28:08.001Z,10.92
2023-04-19T01:30:35.580Z,10.87
2023-04-19T01:33:02.268Z,10.97
2023-04-19T01:35:29.685Z,10.87
2023-04-19T01:37:56.597Z,10.93
2023-04-19T01:40:26.418Z,10.69
2023-04-19T01:42:53.193Z,10.91
2023-04-19T01:45:20.084Z,10.69
2023-04-19T01:47:50.413Z,10.54
2023-04-19T01:50:17.200Z,10.16
2023-04-19T01:52:44.026Z,10.58
2023-04-19T01:55:10.736Z,10.55
2023-04-19T01:57:37.384Z,10.79
2023-04-19T02:00:04.704Z,10.81
2023-04-19T02:02:43.893Z,10.74
2023-04-19T02:05:11.465Z,10.52
2023-04-19T02:07:38.153Z,10.74
2023-04-19T02:10:06.020Z,10.81
2023-04-19T02:12:34.539Z,10.76
2023-04-19T02:15:03.351Z,10.91
2023-04-19T02:17:30.462Z,10.86
2023-04-19T02:19:58.642Z,11.02
2023-04-19T02:22:26.711Z,10.87
2023-04-19T02:24:54.041Z,10.94
2023-04-19T02:27:27.160Z,11.06
2023-04-19T02:29:54.661Z,11.02
2023-04-19T02:32:21.484Z,10.96
2023-04-19T02:34:48.111Z,10.95
2023-04-19T02:37:14.836Z,10.87
2023-04-19T02:39:42.648Z,10.88
2023-04-19T02:42:09.447Z,11.00
2023-04-19T02:44:37.300Z,10.95
2023-04-19T02:47:05.052Z,10.81
2023-04-19T02:49:36.955Z,10.52
2023-04-19T02:52:04.452Z,10.94
2023-04-19T02:54:33.776Z,10.90
2023-04-19T02:57:01.000Z,10.91
2023-04-19T02:59:27.819Z,10.74
2023-04-19T03:01:56.057Z,10.74
2023-04-19T03:04:24.492Z,10.74
2023-04-19T03:06:52.442Z,10.43
2023-04-19T03:09:19.717Z,10.87
2023-04-19T03:11:46.397Z,10.50
2023-04-19T03:14:14.686Z,10.51
2023-04-19T03:16:41.719Z,10.55
2023-04-19T03:19:09.060Z,10.14
2023-04-19T03:21:41.962Z,9.69
2023-04-19T03:24:09.639Z,10.09
2023-04-19T03:26:40.245Z,9.88
2023-04-19T03:29:07.140Z,9.91
2023-04-19T03:31:50.276Z,10.00
2023-04-19T03:34:18.177Z,9.93
2023-04-19T03:36:46.943Z,9.68
2023-04-19T03:39:14.685Z,9.79
2023-04-19T03:41:43.539Z,9.57
2023-04-19T03:44:34.660Z,9.31
2023-04-19T03:47:04.251Z,9.35
2023-04-19T03:49:35.725Z,9.14
2023-04-19T03:52:05.098Z,9.12
2023-04-19T03:54:33.478Z,8.81
2023-04-19T03:57:01.739Z,8.50
2023-04-19T03:59:28.374Z,8.78
2023-04-19T04:01:55.959Z,8.69
2023-04-19T04:04:23.187Z,8.86
2023-04-19T04:06:50.029Z,8.84
2023-04-19T04:09:17.145Z,8.70
2023-04-19T04:11:44.239Z,8.56
2023-04-19T04:14:11.440Z,8.87
2023-04-19T04:16:39.041Z,8.35
2023-04-19T04:19:06.521Z,8.85
2023-04-19T04:21:36.437Z,8.77
2023-04-19T04:24:05.251Z,8.79
2023-04-19T04:26:51.493Z,8.97
2023-04-19T04:29:24.413Z,8.79
2023-04-19T04:31:54.184Z,8.85
2023-04-19T04:34:25.829Z,8.89
2023-04-19T04:37:00.435Z,8.85
2023-04-19T04:39:27.352Z,8.78
2023-04-19T04:41:53.981Z,8.83
2023-04-19T04:44:20.707Z,9.05
2023-04-19T04:46:47.976Z,8.98
2023-04-19T04:49:20.766Z,8.83
2023-04-19T04:51:47.652Z,8.87
2023-04-19T04:54:14.898Z,9.06
2023-04-19T04:56:42.858Z,8.88
2023-04-19T04:59:09.901Z,8.93
2023-04-19T05:01:39.394Z,8.91
2023-04-19T05:04:06.590Z,8.95
2023-04-19T05:06:33.319Z,9.00
2023-04-19T05:08:59.986Z,9.16
2023-04-19T05:11:32.416Z,9.29
2023-04-19T05:13:59.198Z,9.28
2023-04-19T05:16:27.100Z,9.51
2023-04-19T05:18:54.221Z,9.35
2023-04-19T05:21:21.810Z,9.55
2023-04-19T05:23:48.689Z,9.39
2023-04-19T05:26:15.791Z,9.64
2023-04-19T05:28:44.554Z,9.52
2023-04-19T05:31:20.872Z,9.58
2023-04-19T05:34:12.454Z,9.68
2023-04-19T05:36:39.132Z,9.52
2023-04-19T05:39:05.808Z,9.48
2023-04-19T05:41:32.453Z,9.63
2023-04-19T05:43:59.082Z,9.46
2023-04-19T05:46:26.279Z,9.42
2023-04-19T05:48:54.023Z,9.56
2023-04-19T05:51:39.153Z,9.36
2023-04-19T05:54:20.192Z,9.66
2023-04-19T05:56:48.326Z,9.65
2023-04-19T05:59:15.379Z,9.61
2023-04-19T06:01:42.347Z,9.60
2023-04-19T06:04:09.188Z,9.76
2023-04-19T06:06:38.018Z,9.76
2023-04-19T06:09:07.008Z,9.81
2023-04-19T06:11:39.336Z,9.85
2023-04-19T06:14:14.797Z,9.82
2023-04-19T06:16:42.324Z,9.97
2023-04-19T06:19:08.899Z,10.01
2023-04-19T06:21:35.816Z,10.04
2023-04-19T06:24:02.409Z,10.18
2023-04-19T06:26:29.115Z,9.68
2023-04-19T06:28:55.874Z,10.16
2023-04-19T06:31:22.499Z,10.19
2023-04-19T06:33:49.173Z,10.46
2023-04-19T06:36:15.819Z,10.38
2023-04-19T06:38:44.473Z,10.28
2023-04-19T06:41:11.091Z,10.58
2023-04-19T06:43:37.701Z,10.71
2023-04-19T06:46:07.279Z,10.91
2023-04-19T06:48:34.852Z,11.21
2023-04-19T06:51:01.494Z,11.50
2023-04-19T06:53:28.325Z,12.04
2023-04-19T06:56:02.526Z,12.31
2023-04-19T06:58:29.261Z,12.60
2023-04-19T07:00:56.713Z,12.61
2023-04-19T07:03:23.563Z,13.31
2023-04-19T07:05:52.280Z,13.02
2023-04-19T07:08:18.962Z,13.74
2023-04-19T07:10:45.627Z,13.81
2023-04-19T07:13:12.189Z,13.65
2023-04-19T07:15:39.073Z,13.78
2023-04-19T07:18:05.781Z,13.89
2023-04-19T07:20:32.636Z,14.05
2023-04-19T07:22:59.572Z,14.34
2023-04-19T07:25:26.624Z,14.31
2023-04-19T07:27:54.500Z,14.39
2023-04-19T07:30:21.327Z,14.13
2023-04-19T07:32:48.273Z,14.50
2023-04-19T07:35:14.984Z,14.52
2023-04-19T07:37:42.156Z,15.29
2023-04-19T07:40:09.300Z,15.11
2023-04-19T07:42:35.897Z,15.28
2023-04-19T07:45:02.906Z,15.16
2023-04-19T07:47:29.578Z,15.20
2023-04-19T07:49:56.472Z,15.08
2023-04-19T07:52:23.060Z,15.17
2023-04-19T07:54:49.803Z,15.01
2023-04-19T07:57:16.411Z,15.17
2023-04-19T07:59:42.967Z,15.29
2023-04-19T08:02:09.596Z,15.35
2023-04-19T08:04:37.514Z,15.63
2023-04-19T08:07:04.836Z,15.96
2023-04-19T08:09:33.991Z,16.01
2023-04-19T08:12:01.479Z,16.21
2023-04-19T08:14:37.223Z,15.61
2023-04-19T08:19:34.227Z,16.14
2023-04-19T08:22:00.951Z,16.23
2023-04-19T08:24:27.617Z,16.70
2023-04-19T08:26:54.554Z,16.53
2023-04-19T08:29:22.231Z,16.51
2023-04-19T08:31:49.238Z,16.46
2023-04-19T08:34:15.855Z,16.76
2023-04-19T08:39:18.008Z,16.89
2023-04-19T08:42:02.580Z,16.94
2023-04-19T08:44:36.698Z,16.92
2023-04-19T08:47:06.591Z,16.73
2023-04-19T08:49:37.083Z,16.73
2023-04-19T08:52:06.259Z,16.63
2023-04-19T08:54:35.679Z,16.69
2023-04-19T08:57:03.163Z,16.69
2023-04-19T08:59:30.823Z,16.72
2023-04-19T09:02:01.062Z,16.86
2023-04-19T09:04:36.827Z,16.86
2023-04-19T09:07:04.423Z,16.63
2023-04-19T09:09:38.699Z,17.07
2023-04-19T09:12:18.546Z,17.58
2023-04-19T09:17:17.304Z,17.98
2023-04-19T09:19:50.691Z,18.34
2023-04-19T09:22:18.538Z,18.02
2023-04-19T09:25:14.522Z,18.67
2023-04-19T09:27:38.375Z,18.34
2023-04-19T09:30:07.291Z,18.26
2023-04-19T09:32:47.752Z,18.27
2023-04-19T09:35:14.869Z,18.08
2023-04-19T09:38:04.126Z,18.14
2023-04-19T09:40:28.630Z,18.34
2023-04-19T09:43:08.741Z,18.31
2023-04-19T09:45:45.417Z,18.05
2023-04-19T09:48:13.343Z,17.87
2023-04-19T09:51:00.154Z,17.61
2023-04-19T09:53:31.040Z,17.27
2023-04-19T09:56:02.099Z,17.50
2023-04-19T09:58:41.560Z,17.57
2023-04-19T10:01:16.744Z,17.69
2023-04-19T10:03:49.930Z,17.89
2023-04-19T10:09:10.795Z,17.85
2023-04-19T10:12:03.222Z,17.98
2023-04-19T10:14:40.322Z,19.02
2023-04-19T10:17:07.079Z,19.36
2023-04-19T10:19:35.962Z,19.65
2023-04-19T10:22:05.421Z,19.43
2023-04-19T10:24:32.097Z,19.58
2023-04-19T10:27:14.595Z,19.24
2023-04-19T10:30:01.841Z,19.72
2023-04-19T10:32:30.743Z,19.81
2023-04-19T10:35:04.661Z,20.01
2023-04-19T10:37:31.743Z,19.75
2023-04-19T10:39:58.351Z,19.83
2023-04-19T10:42:24.898Z,19.85
2023-04-19T10:45:34.416Z,19.78
2023-04-19T10:48:03.710Z,19.70
2023-04-19T10:50:30.492Z,20.59
2023-04-19T10:52:57.135Z,20.65
2023-04-19T10:55:23.729Z,20.32
2023-04-19T10:58:06.328Z,20.47
2023-04-19T11:00:33.577Z,20.75
2023-04-19T11:03:03.724Z,21.11
2023-04-19T11:05:30.371Z,21.54
2023-04-19T11:07:57.742Z,21.69
2023-04-19T11:10:31.000Z,21.30
2023-04-19T11:12:58.365Z,21.77
2023-04-19T11:15:24.923Z,21.96
2023-04-19T11:18:01.030Z,21.52
2023-04-19T11:20:36.002Z,21.42
2023-04-19T11:23:02.506Z,21.81
2023-04-19T11:25:31.563Z,22.02
2023-04-19T11:28:00.399Z,21.87
2023-04-19T11:30:30.819Z,22.59
2023-04-19T11:32:58.178Z,22.48
2023-04-19T11:35:27.113Z,22.46
2023-04-19T11:37:55.143Z,22.23
2023-04-19T11:40:23.770Z,22.99
2023-04-19T11:43:02.048Z,23.79
2023-04-19T11:45:36.722Z,23.87
2023-04-19T11:48:05.952Z,23.00
2023-04-19T11:50:40.753Z,23.17
2023-04-19T11:53:11.980Z,23.58
2023-04-19T11:55:38.620Z,23.89
2023-04-19T11:58:11.070Z,23.87
2023-04-19T12:00:37.797Z,23.81
2023-04-19T12:03:04.935Z,23.66
2023-04-19T12:05:32.081Z,23.47
2023-04-19T12:08:00.912Z,23.50
2023-04-19T12:10:27.943Z,23.71
2023-04-19T12:12:54.640Z,23.52
2023-04-19T12:15:23.861Z,23.39
2023-04-19T12:17:59.559Z,23.00
2023-04-19T12:20:36.996Z,23.37
2023-04-19T12:23:04.143Z,23.57
2023-04-19T12:25:33.092Z,23.35
2023-04-19T12:28:01.202Z,23.66
2023-04-19T12:30:27.899Z,23.93
2023-04-19T12:32:55.617Z,24.04
2023-04-19T12:35:23.037Z,24.33
2023-04-19T12:37:49.744Z,24.51
2023-04-19T12:40:16.627Z,25.48
2023-04-19T12:42:43.277Z,25.43
2023-04-19T12:45:10.796Z,25.25
2023-04-19T12:47:39.125Z,25.04
2023-04-19T12:50:07.308Z,24.79
2023-04-19T12:52:34.259Z,24.54
2023-04-19T12:55:01.012Z,23.06
2023-04-19T12:57:27.656Z,22.91
2023-04-19T12:59:54.300Z,22.03
2023-04-19T13:02:21.129Z,23.16
2023-04-19T13:04:47.939Z,24.04
2023-04-19T13:07:14.618Z,24.23
2023-04-19T13:09:41.226Z,24.45
2023-04-19T13:12:08.080Z,24.46
2023-04-19T13:14:34.634Z,24.82
2023-04-19T13:17:01.212Z,24.63
2023-04-19T13:19:27.828Z,24.56
2023-04-19T13:21:54.612Z,24.72
2023-04-19T13:24:21.193Z,24.41
2023-04-19T13:26:48.916Z,24.97
2023-04-19T13:29:15.613Z,24.23
2023-04-19T13:31:43.749Z,24.32
2023-04-19T13:34:10.682Z,24.37
2023-04-19T13:36:37.729Z,24.57
2023-04-19T13:39:05.350Z,24.21
2023-04-19T13:41:33.466Z,24.43
2023-04-19T13:43:59.992Z,24.59
2023-04-19T13:46:26.646Z,23.85
2023-04-19T13:48:53.215Z,24.16
2023-04-19T13:51:19.741Z,24.32
2023-04-19T13:53:46.326Z,25.18
2023-04-19T13:56:12.898Z,25.62
2023-04-19T13:58:39.431Z,24.81
2023-04-19T14:01:06.089Z,25.21
2023-04-19T14:03:32.935Z,24.97
2023-04-19T14:05:59.624Z,25.35
2023-04-19T14:08:26.208Z,25.13
2023-04-19T14:10:52.827Z,25.37
2023-04-19T14:13:19.417Z,25.01
2023-04-19T14:15:46.622Z,25.22
2023-04-19T14:18:13.265Z,25.00
2023-04-19T14:20:39.906Z,25.18
2023-04-19T14:23:06.438Z,25.06
2023-04-19T14:25:32.969Z,25.33
2023-04-19T14:27:59.473Z,24.87
2023-04-19T14:30:26.277Z,24.74
2023-04-19T14:32:52.971Z,24.65
2023-04-19T14:35:20.059Z,24.92
2023-04-19T14:37:46.714Z,25.38
2023-04-19T14:40:13.363Z,25.73
2023-04-19T14:42:39.998Z,25.98
2023-04-19T14:45:07.308Z,25.54
2023-04-19T14:47:34.272Z,25.69
2023-04-19T14:50:00.859Z,25.93
2023-04-19T14:52:27.522Z,25.63
2023-04-19T14:54:54.148Z,25.24
2023-04-19T14:57:20.769Z,25.47
2023-04-19T14:59:47.332Z,26.05
2023-04-19T15:02:14.032Z,25.57
2023-04-19T15:04:41.814Z,25.10
2023-04-19T15:07:08.750Z,24.60
2023-04-19T15:09:35.500Z,24.89
2023-04-19T15:12:02.211Z,25.38
2023-04-19T15:14:28.765Z,25.40
2023-04-19T15:16:55.514Z,25.44
2023-04-19T15:19:22.129Z,25.22
2023-04-19T15:21:48.848Z,24.93
2023-04-19T15:24:15.637Z,25.18
2023-04-19T15:26:44.296Z,25.77
2023-04-19T15:29:11.535Z,26.03
2023-04-19T15:31:38.587Z,25.72
2023-04-19T15:34:05.532Z,25.06
2023-04-19T15:36:32.274Z,25.20
2023-04-19T15:38:59.544Z,25.40
2023-04-19T15:41:26.478Z,25.20
2023-04-19T15:43:53.309Z,24.75
2023-04-19T15:46:20.312Z,24.30
2023-04-19T15:48:48.399Z,23.71
2023-04-19T15:51:15.496Z,24.16
2023-04-19T15:53:42.627Z,23.90
2023-04-19T15:56:10.923Z,24.31
2023-04-19T15:58:37.902Z,24.69
2023-04-19T16:01:08.485Z,24.61
2023-04-19T16:03:35.387Z,24.51
2023-04-19T16:06:02.180Z,24.93
2023-04-19T16:08:28.823Z,24.01
2023-04-19T16:10:56.648Z,23.98
2023-04-19T16:13:23.413Z,24.16
2023-04-19T16:15:49.974Z,23.85
2023-04-19T16:18:16.704Z,23.64
2023-04-19T16:20:43.452Z,23.77
2023-04-19T16:23:10.206Z,23.53
2023-04-19T16:25:36.845Z,23.00
2023-04-19T16:28:03.687Z,21.95
2023-04-19T16:30:30.819Z,21.43
2023-04-19T16:32:58.316Z,21.30
2023-04-19T16:35:26.675Z,21.43
2023-04-19T16:37:55.887Z,21.05
2023-04-19T16:40:26.113Z,21.13
2023-04-19T16:42:52.936Z,21.61
2023-04-19T16:45:19.584Z,20.90
2023-04-19T16:47:49.289Z,20.37
2023-04-19T16:50:16.178Z,19.50
2023-04-19T16:52:42.954Z,18.93
2023-04-19T16:55:10.047Z,18.47
2023-04-19T16:57:37.911Z,19.05
2023-04-19T17:00:06.567Z,19.21
2023-04-19T17:02:33.639Z,19.00
2023-04-19T17:05:00.909Z,18.50
2023-04-19T17:07:27.898Z,17.66
2023-04-19T17:09:55.718Z,17.09
2023-04-19T17:12:22.548Z,16.76
2023-04-19T17:14:49.186Z,16.93
2023-04-19T17:17:15.901Z,17.25
2023-04-19T17:19:42.560Z,17.40
2023-04-19T17:22:09.205Z,16.95
2023-04-19T17:24:35.908Z,16.19
2023-04-19T17:27:02.704Z,15.66
2023-04-19T17:29:29.300Z,15.41
2023-04-19T17:31:56.470Z,15.28
2023-04-19T17:34:23.156Z,15.05
2023-04-19T17:36:49.984Z,14.90
2023-04-19T17:39:17.028Z,14.65
2023-04-19T17:41:44.741Z,14.88
2023-04-19T17:44:12.418Z,15.09
2023-04-19T17:46:40.071Z,14.81
2023-04-19T17:49:06.902Z,15.03
2023-04-19T17:51:33.592Z,15.08
2023-04-19T17:54:00.117Z,14.84
2023-04-19T17:56:26.905Z,14.44
2023-04-19T17:58:55.773Z,14.44
2023-04-19T18:01:22.523Z,14.07
2023-04-19T18:03:49.364Z,14.14
2023-04-19T18:06:20.759Z,14.01
2023-04-19T18:08:48.339Z,13.60
2023-04-19T18:11:18.053Z,13.47
2023-04-19T18:13:45.629Z,13.45
2023-04-19T18:16:13.428Z,13.08
2023-04-19T18:18:40.381Z,12.93
2023-04-19T18:21:07.817Z,13.00
2023-04-19T18:23:34.466Z,12.71
2023-04-19T18:26:02.708Z,12.48
2023-04-19T18:28:29.852Z,12.53
2023-04-19T18:30:56.954Z,12.41
2023-04-19T18:33:23.655Z,12.19
2023-04-19T18:35:50.279Z,12.09
2023-04-19T18:38:16.964Z,11.90
2023-04-19T18:40:43.601Z,11.68
2023-04-19T18:43:10.682Z,11.76
2023-04-19T18:45:37.385Z,11.81
2023-04-19T18:48:04.107Z,11.58
2023-04-19T18:50:31.136Z,11.55
2023-04-19T18:52:58.493Z,11.44
2023-04-19T18:55:26.539Z,11.51
2023-04-19T18:57:53.279Z,11.52
2023-04-19T19:00:21.623Z,11.34
2023-04-19T19:02:48.508Z,11.19
2023-04-19T19:05:16.011Z,11.02
2023-04-19T19:07:43.063Z,11.12
2023-04-19T19:10:19.283Z,10.90
2023-04-19T19:12:49.266Z,10.74
2023-04-19T19:15:16.944Z,10.73
2023-04-19T19:17:48.517Z,10.89
2023-04-19T19:20:16.529Z,10.74
2023-04-19T19:22:43.338Z,10.53
2023-04-19T19:25:11.319Z,10.60
2023-04-19T19:27:38.813Z,10.07
2023-04-19T19:30:07.857Z,10.52
2023-04-19T19:32:35.038Z,10.36
2023-04-19T19:35:06.405Z,10.28
2023-04-19T19:37:38.164Z,10.34
2023-04-19T19:40:07.057Z,9.89
2023-04-19T19:42:34.697Z,9.71
2023-04-19T19:45:04.641Z,9.98
2023-04-19T19:47:35.055Z,9.35
2023-04-19T19:50:52.093Z,9.93
2023-04-19T19:52:53.154Z,9.76
2023-04-19T19:55:19.842Z,9.66
2023-04-19T20:02:56.912Z,9.56
2023-04-19T20:05:24.186Z,9.56
2023-04-19T20:10:20.619Z,9.35
2023-04-19T20:12:47.407Z,9.37
2023-04-19T20:15:14.299Z,9.52
2023-04-19T20:17:41.164Z,8.99
2023-04-19T20:20:08.977Z,9.36
2023-04-19T20:22:35.857Z,9.25
2023-04-19T20:25:02.515Z,9.52
2023-04-19T20:27:29.178Z,8.88
2023-04-19T20:29:56.876Z,9.31
2023-04-19T20:32:23.846Z,9.36
2023-04-19T20:34:50.835Z,9.33
2023-04-19T20:37:18.218Z,9.20
2023-04-19T20:39:44.849Z,9.03
2023-04-19T20:42:11.546Z,9.17
2023-04-19T20:44:38.112Z,9.09
2023-04-19T20:47:04.679Z,9.00
2023-04-19T20:49:31.298Z,9.00
2023-04-19T20:51:57.959Z,8.95
2023-04-19T20:54:24.602Z,9.09
2023-04-19T20:56:53.104Z,8.73
2023-04-19T20:59:19.724Z,8.99
2023-04-19T21:01:46.453Z,8.94
2023-04-19T21:04:13.216Z,8.96
2023-04-19T21:06:40.029Z,8.88
2023-04-19T21:09:06.667Z,8.78
2023-04-19T21:11:33.306Z,9.01
2023-04-19T21:14:00.049Z,8.82
2023-04-19T21:16:26.831Z,8.85
2023-04-19T21:18:53.477Z,8.93
2023-04-19T21:21:20.208Z,8.82
2023-04-19T21:23:46.783Z,8.58
2023-04-19T21:26:13.383Z,8.79
2023-04-19T21:28:40.114Z,8.66
2023-04-19T21:31:06.773Z,8.58
2023-04-19T21:33:33.421Z,8.38
2023-04-19T21:36:00.218Z,8.33
2023-04-19T21:38:26.867Z,8.39
2023-04-19T21:40:53.463Z,8.41
2023-04-19T21:43:22.431Z,8.55
2023-04-19T21:45:49.051Z,8.48
2023-04-19T21:48:15.710Z,8.56
2023-04-19T21:50:42.652Z,8.52
2023-04-19T21:53:10.693Z,8.43
2023-04-19T21:55:37.485Z,7.76
2023-04-19T21:58:04.407Z,8.31
2023-04-19T22:01:04.394Z,8.34
2023-04-19T22:03:31.775Z,8.28
2023-04-19T22:10:31.418Z,8.13
2023-04-19T22:17:29.270Z,8.19
2023-04-19T22:20:21.161Z,8.16
2023-04-19T22:24:02.367Z,8.16
2023-04-19T22:31:17.964Z,7.95
2023-04-19T22:33:45.804Z,7.69
2023-04-19T22:36:13.568Z,7.82
2023-04-19T22:38:40.244Z,7.58
2023-04-19T22:41:59.218Z,7.69
2023-04-19T22:44:26.064Z,7.03
2023-04-19T22:46:52.758Z,7.48
2023-04-19T22:49:22.136Z,7.23
2023-04-19T22:51:48.812Z,7.30
2023-04-19T22:54:15.939Z,7.05
2023-04-19T22:56:42.754Z,7.21
2023-04-19T22:59:09.529Z,7.38
2023-04-19T23:01:36.225Z,7.35
2023-04-19T23:04:02.921Z,7.08
2023-04-19T23:06:30.212Z,7.02
2023-04-19T23:08:56.806Z,7.22
2023-04-19T23:11:25.059Z,7.14
2023-04-19T23:13:55.327Z,7.13
2023-04-19T23:16:25.784Z,7.13
2023-04-19T23:18:52.687Z,6.36
2023-04-19T23:21:19.364Z,7.04
2023-04-19T23:23:46.133Z,6.91
2023-04-19T23:26:12.746Z,7.13
2023-04-19T23:28:39.431Z,6.97
2023-04-19T23:31:06.361Z,6.98
2023-04-19T23:33:32.957Z,6.91
2023-04-19T23:35:59.609Z,6.84
2023-04-19T23:38:26.193Z,7.07
2023-04-19T23:40:52.812Z,7.06
2023-04-19T23:43:19.376Z,6.57
2023-04-19T23:45:46.945Z,6.36
2023-04-19T23:48:13.616Z,6.98
2023-04-19T23:50:40.270Z,7.09
2023-04-19T23:53:07.212Z,6.89
2023-04-19T23:55:33.826Z,7.17
2023-04-19T23:58:00.423Z,6.71
